Time;durP1;ratioP1;P1;durP2;ratioP2;P2;SDS_P1;SDS_P2;PMS_P1;PMS_P2;Temp;Humidity;BMP_temperature;BMP_pressure;BME280_temperature;BME280_humidity;BME280_pressure;Samples;Min_cycle;Max_cycle;Signal;HPM_P1;HPM_P2
2021/03/09 00:02:13;;;;;;;28.48;17.48;;;51.60;1996.80;;;;;;4978652;28;20093;-74
2021/03/09 00:04:39;;;;;;;26.20;15.27;;;51.60;2022.40;;;;;;4977798;28;20027;-73
2021/03/09 00:07:04;;;;;;;28.10;16.70;;;51.60;2022.40;;;;;;4974332;28;20038;-73
2021/03/09 00:09:31;;;;;;;26.38;16.65;;;51.60;2022.40;;;;;;4978934;28;20022;-74
2021/03/09 00:11:57;;;;;;;37.17;21.13;;;51.40;2048.00;;;;;;4977840;28;20109;-73
2021/03/09 00:14:22;;;;;;;29.73;19.42;;;51.50;2048.00;;;;;;4983529;28;20042;-74
2021/03/09 00:16:48;;;;;;;29.92;17.05;;;51.50;2048.00;;;;;;4998908;28;20518;-75
2021/03/09 00:19:14;;;;;;;23.48;15.88;;;51.40;2048.00;;;;;;4998455;28;20034;-73
2021/03/09 00:21:40;;;;;;;26.02;16.50;;;51.40;2073.60;;;;;;4974076;28;20388;-72
2021/03/09 00:24:06;;;;;;;34.22;19.83;;;51.40;2073.60;;;;;;4967671;28;20038;-73
2021/03/09 00:26:31;;;;;;;35.20;20.35;;;51.40;2073.60;;;;;;4974096;28;20027;-73
2021/03/09 00:28:57;;;;;;;33.05;20.10;;;51.30;2048.00;;;;;;4985366;28;20029;-72
2021/03/09 00:31:23;;;;;;;26.95;16.20;;;51.20;2124.80;;;;;;4984410;28;20046;-72
2021/03/09 00:33:48;;;;;;;28.15;17.42;;;51.20;2124.80;;;;;;4980343;28;20187;-72
2021/03/09 00:36:14;;;;;;;31.65;18.40;;;51.20;2150.40;;;;;;4993332;28;20487;-73
2021/03/09 00:38:40;;;;;;;29.55;17.58;;;51.20;2124.80;;;;;;4989695;28;20099;-72
2021/03/09 00:41:05;;;;;;;27.50;17.38;;;26.50;2124.80;;;;;;4960847;28;20095;-73
2021/03/09 00:43:31;;;;;;;31.10;19.25;;;26.50;2124.80;;;;;;4982335;28;20031;-72
2021/03/09 00:45:57;;;;;;;29.25;18.65;;;26.40;2150.40;;;;;;4972637;28;20025;-73
2021/03/09 00:48:22;;;;;;;33.08;19.77;;;26.40;2150.40;;;;;;4975057;28;20039;-74
2021/03/09 00:50:48;;;;;;;30.27;19.20;;;26.30;2176.00;;;;;;4973861;28;20081;-73
2021/03/09 00:53:14;;;;;;;34.47;21.15;;;26.30;2176.00;;;;;;4973868;28;20027;-73
2021/03/09 00:55:39;;;;;;;27.77;18.05;;;26.30;2176.00;;;;;;4959025;28;20134;-72
2021/03/09 00:58:05;;;;;;;29.42;18.58;;;26.30;2176.00;;;;;;4985246;28;20034;-73
2021/03/09 01:00:31;;;;;;;31.55;18.83;;;26.30;2201.60;;;;;;4961364;28;20054;-73
2021/03/09 01:02:57;;;;;;;33.83;18.63;;;26.20;2176.00;;;;;;4963217;28;20027;-73
2021/03/09 01:05:23;;;;;;;34.30;20.20;;;26.20;2201.60;;;;;;4960465;28;20372;-74
2021/03/09 01:07:49;;;;;;;40.00;22.58;;;26.10;2201.60;;;;;;4981737;28;20030;-73
2021/03/09 01:10:17;;;;;;;37.78;22.95;;;26.10;2201.60;;;;;;4977940;28;20384;-72
2021/03/09 01:12:43;;;;;;;39.88;22.48;;;26.00;2201.60;;;;;;4961482;28;20037;-72
2021/03/09 01:15:09;;;;;;;35.80;22.30;;;25.90;2201.60;;;;;;4973010;28;20098;-77
2021/03/09 01:17:36;;;;;;;35.70;21.30;;;25.90;2201.60;;;;;;4973718;28;20097;-73
2021/03/09 01:20:03;;;;;;;36.80;22.80;;;25.90;2201.60;;;;;;4976251;28;20102;-73
2021/03/09 01:22:29;;;;;;;39.40;22.60;;;25.80;2201.60;;;;;;4984623;28;20030;-72
2021/03/09 01:24:55;;;;;;;52.08;27.30;;;25.80;2201.60;;;;;;4982519;28;20037;-73
2021/03/09 01:27:20;;;;;;;39.03;23.35;;;25.90;2201.60;;;;;;4986679;28;20058;-73
2021/03/09 01:29:46;;;;;;;45.72;26.80;;;25.80;2201.60;;;;;;4983603;28;20022;-72
2021/03/09 01:32:12;;;;;;;41.80;24.30;;;25.70;2201.60;;;;;;4971523;28;20404;-73
2021/03/09 01:34:37;;;;;;;37.55;22.90;;;25.70;2201.60;;;;;;4994144;28;20017;-71
2021/03/09 01:37:04;;;;;;;37.40;22.38;;;25.60;2201.60;;;;;;4985638;28;20492;-73
2021/03/09 01:39:30;;;;;;;50.45;27.75;;;25.70;2201.60;;;;;;4988984;28;20031;-73
2021/03/09 01:41:57;;;;;;;54.38;27.33;;;25.70;2201.60;;;;;;4977624;28;20098;-74
2021/03/09 01:44:24;;;;;;;51.17;26.77;;;25.60;2201.60;;;;;;4970944;28;20027;-73
2021/03/09 01:46:50;;;;;;;74.63;35.33;;;25.80;2201.60;;;;;;4975373;28;20468;-73
2021/03/09 01:49:17;;;;;;;113.78;48.17;;;0.90;2201.60;;;;;;4977558;28;20085;-73
2021/03/09 01:51:45;;;;;;;67.40;33.13;;;0.90;2201.60;;;;;;4962283;28;20029;-73
2021/03/09 01:54:12;;;;;;;50.13;25.63;;;0.80;2201.60;;;;;;4967233;28;20398;-73
2021/03/09 01:56:40;;;;;;;45.80;25.33;;;0.70;2201.60;;;;;;4973832;28;20118;-73
2021/03/09 01:59:07;;;;;;;62.53;32.28;;;0.70;2201.60;;;;;;4973233;28;20097;-75
2021/03/09 02:01:34;;;;;;;43.53;24.92;;;0.70;2201.60;;;;;;4976750;28;20027;-73
2021/03/09 02:03:59;;;;;;;33.15;19.83;;;0.60;2201.60;;;;;;4974385;28;20069;-72
2021/03/09 02:06:25;;;;;;;44.95;24.13;;;0.60;2201.60;;;;;;4990741;28;20026;-72
2021/03/09 02:08:51;;;;;;;41.25;23.60;;;0.60;2201.60;;;;;;4977207;28;20062;-72
2021/03/09 02:11:29;;;;;;;39.15;22.60;;;0.70;2201.60;;;;;;4955885;28;20031;-73
2021/03/09 02:14:05;;;;;;;36.13;21.95;;;0.50;2201.60;;;;;;4995276;28;20040;-72
2021/03/09 02:16:57;;;;;;;34.47;21.75;;;0.50;2201.60;;;;;;4996575;28;20045;-73
2021/03/09 02:20:04;;;;;;;34.75;21.60;;;0.50;2201.60;;;;;;4980056;28;20129;-75
2021/03/09 02:23:01;;;;;;;34.55;20.58;;;0.40;2201.60;;;;;;4976259;28;20034;-73
2021/03/09 02:25:45;;;;;;;34.00;20.58;;;0.40;2201.60;;;;;;4965757;28;20482;-72
2021/03/09 02:28:11;;;;;;;34.65;20.20;;;0.30;2201.60;;;;;;4973809;28;20035;-72
2021/03/09 02:30:47;;;;;;;33.13;20.20;;;0.40;2201.60;;;;;;4955924;28;20031;-72
2021/03/09 02:33:28;;;;;;;36.85;21.60;;;0.40;2201.60;;;;;;4956594;28;20053;-72
2021/03/09 02:36:05;;;;;;;32.63;20.58;;;0.30;2201.60;;;;;;4957055;28;20062;-72
2021/03/09 02:39:01;;;;;;;32.05;19.85;;;0.30;2201.60;;;;;;4974610;28;20126;-72
2021/03/09 02:41:29;;;;;;;32.17;19.90;;;0.30;2201.60;;;;;;4956904;28;20035;-72
2021/03/09 02:43:56;;;;;;;30.63;19.63;;;0.30;2201.60;;;;;;4957573;28;20081;-76
2021/03/09 02:46:25;;;;;;;28.80;19.73;;;0.20;2201.60;;;;;;4951937;28;20047;-73
2021/03/09 02:48:52;;;;;;;30.92;20.00;;;0.10;2201.60;;;;;;4952479;28;20058;-72
2021/03/09 02:51:22;;;;;;;31.48;20.02;;;0.10;2201.60;;;;;;4940917;28;20099;-72
2021/03/09 02:53:51;;;;;;;39.55;24.13;;;0.10;2201.60;;;;;;4961174;28;20043;-72
2021/03/09 02:56:18;;;;;;;47.72;27.08;;;0.10;2201.60;;;;;;4949835;28;20042;-72
2021/03/09 02:58:47;;;;;;;41.15;23.52;;;0.00;2201.60;;;;;;4947230;28;20115;-72
2021/03/09 03:01:14;;;;;;;39.60;23.52;;;0.00;2201.60;;;;;;4965144;28;20030;-72
2021/03/09 03:03:46;;;;;;;38.70;23.65;;;0.00;2201.60;;;;;;4961852;28;20027;-73
2021/03/09 03:06:12;;;;;;;40.42;23.90;;;0.00;2201.60;;;;;;4972441;28;20126;-72
2021/03/09 03:08:42;;;;;;;35.17;22.10;;;0.00;2201.60;;;;;;4982818;28;20455;-72
2021/03/09 03:11:09;;;;;;;35.40;22.27;;;0.00;2201.60;;;;;;4974876;28;20107;-72
2021/03/09 03:13:36;;;;;;;36.75;24.42;;;0.00;2201.60;;;;;;4992669;28;20057;-73
2021/03/09 03:16:04;;;;;;;41.92;25.38;;;12.90;2201.60;;;;;;4994799;28;20019;-73
2021/03/09 03:18:31;;;;;;;41.97;25.58;;;0.00;2201.60;;;;;;4986493;28;20046;-73
2021/03/09 03:20:56;;;;;;;37.25;24.42;;;12.90;2201.60;;;;;;4983063;28;20026;-72
2021/03/09 03:23:23;;;;;;;39.17;23.70;;;12.90;2201.60;;;;;;4970911;28;20027;-73
2021/03/09 03:25:54;;;;;;;35.88;22.45;;;13.00;2201.60;;;;;;4981483;28;20054;-72
2021/03/09 03:28:21;;;;;;;34.63;21.08;;;13.00;2201.60;;;;;;4998982;28;20077;-73
2021/03/09 03:30:48;;;;;;;37.97;22.45;;;13.00;2201.60;;;;;;4969832;28;20023;-72
2021/03/09 03:33:14;;;;;;;38.75;23.20;;;13.00;2201.60;;;;;;4976443;28;20037;-74
2021/03/09 03:35:40;;;;;;;39.25;23.05;;;13.00;2201.60;;;;;;4989728;28;20029;-72
2021/03/09 03:38:07;;;;;;;40.17;23.85;;;13.00;2201.60;;;;;;4994682;28;20038;-73
2021/03/09 03:40:32;;;;;;;36.20;23.08;;;13.00;2201.60;;;;;;4970538;28;20102;-72
2021/03/09 03:42:58;;;;;;;37.70;24.10;;;13.10;2201.60;;;;;;4967134;28;20121;-72
2021/03/09 03:45:25;;;;;;;38.92;24.20;;;13.00;2201.60;;;;;;4976359;28;20063;-71
2021/03/09 03:47:57;;;;;;;37.83;22.73;;;13.10;2201.60;;;;;;4956664;28;20126;-72
2021/03/09 03:50:24;;;;;;;36.92;22.23;;;13.10;2201.60;;;;;;4969264;28;20027;-73
2021/03/09 03:53:21;;;;;;;35.38;21.95;;;13.10;2201.60;;;;;;4964581;28;20033;-72
2021/03/09 03:56:16;;;;;;;35.95;22.35;;;13.10;2201.60;;;;;;4975885;28;20042;-71
2021/03/09 03:59:00;;;;;;;33.25;21.52;;;13.10;2201.60;;;;;;4981223;28;20026;-73
2021/03/09 04:01:27;;;;;;;35.90;21.75;;;13.10;2201.60;;;;;;4970333;28;20031;-72
2021/03/09 04:03:55;;;;;;;35.97;21.45;;;13.20;2201.60;;;;;;4951101;28;20034;-73
2021/03/09 04:06:26;;;;;;;35.38;21.15;;;13.20;2201.60;;;;;;4982584;28;20033;-73
2021/03/09 04:08:54;;;;;;;32.63;21.60;;;13.10;2201.60;;;;;;4973768;28;20117;-73
2021/03/09 04:11:21;;;;;;;32.70;20.90;;;13.20;2201.60;;;;;;4985001;28;20022;-72
2021/03/09 04:13:47;;;;;;;31.15;21.35;;;13.20;2201.60;;;;;;4990941;28;20073;-73
2021/03/09 04:16:15;;;;;;;35.20;22.25;;;13.10;2201.60;;;;;;4973409;28;20042;-73
2021/03/09 04:18:42;;;;;;;35.33;22.80;;;13.10;2201.60;;;;;;4991802;28;20059;-75
2021/03/09 04:21:09;;;;;;;35.83;22.40;;;13.10;2201.60;;;;;;4975862;28;20102;-72
2021/03/09 04:23:36;;;;;;;30.63;20.58;;;13.10;2201.60;;;;;;4988345;28;20033;-72
2021/03/09 04:26:03;;;;;;;69.75;36.05;;;13.10;2201.60;;;;;;4966349;28;20015;-71
2021/03/09 04:28:29;;;;;;;58.95;31.75;;;13.10;2201.60;;;;;;4974799;28;20027;-72
2021/03/09 04:30:55;;;;;;;31.58;20.73;;;13.20;2201.60;;;;;;4985916;28;20070;-71
2021/03/09 04:33:25;;;;;;;33.67;21.60;;;13.10;2201.60;;;;;;4972424;28;20049;-73
2021/03/09 04:35:51;;;;;;;30.65;21.23;;;13.20;2201.60;;;;;;4994425;28;20487;-72
2021/03/09 04:38:18;;;;;;;29.48;20.60;;;13.20;2201.60;;;;;;4962625;28;20134;-72
2021/03/09 04:40:44;;;;;;;31.27;20.33;;;13.10;2201.60;;;;;;4974141;28;20022;-72
2021/03/09 04:43:10;;;;;;;27.08;18.80;;;13.20;2201.60;;;;;;4980129;28;20443;-71
2021/03/09 04:45:36;;;;;;;27.77;18.38;;;13.20;2201.60;;;;;;4984855;28;20062;-73
2021/03/09 04:48:02;;;;;;;28.77;17.58;;;13.20;2201.60;;;;;;4974082;28;20037;-72
2021/03/09 04:50:28;;;;;;;28.02;18.05;;;13.70;2201.60;;;;;;4968919;28;20035;-73
2021/03/09 04:52:55;;;;;;;28.13;18.13;;;13.20;2201.60;;;;;;4963738;28;20031;-73
2021/03/09 04:55:23;;;;;;;30.90;20.60;;;13.20;2201.60;;;;;;4961241;28;20054;-73
2021/03/09 04:57:48;;;;;;;44.63;29.42;;;13.30;2201.60;;;;;;4973563;28;20122;-72
2021/03/09 05:00:17;;;;;;;35.63;24.85;;;13.20;2201.60;;;;;;4955981;28;20122;-73
2021/03/09 05:02:46;;;;;;;31.70;21.75;;;13.20;2201.60;;;;;;4981260;28;20030;-73
2021/03/09 05:05:13;;;;;;;30.73;20.40;;;13.20;2201.60;;;;;;4960809;28;20083;-75
2021/03/09 05:07:39;;;;;;;25.73;16.23;;;13.20;2201.60;;;;;;4962098;28;20097;-73
2021/03/09 05:10:06;;;;;;;25.23;16.40;;;13.50;2201.60;;;;;;4964498;28;20106;-73
2021/03/09 05:12:32;;;;;;;23.38;15.00;;;13.10;2201.60;;;;;;4977296;28;20018;-72
2021/03/09 05:14:58;;;;;;;24.42;15.38;;;12.90;2201.60;;;;;;4989097;28;20114;-72
2021/03/09 05:17:24;;;;;;;25.60;14.63;;;0.00;2201.60;;;;;;4983141;28;20449;-72
2021/03/09 05:19:49;;;;;;;57.22;30.58;;;0.20;2201.60;;;;;;4981650;28;20062;-71
2021/03/09 05:22:15;;;;;;;86.95;43.83;;;0.40;2201.60;;;;;;4982187;28;20069;-72
2021/03/09 05:24:41;;;;;;;37.10;20.95;;;0.50;2201.60;;;;;;4975251;28;20041;-73
2021/03/09 05:27:06;;;;;;;34.00;20.73;;;0.70;2201.60;;;;;;4979064;28;20482;-73
2021/03/09 05:29:32;;;;;;;40.40;23.48;;;0.80;2201.60;;;;;;4975065;28;20026;-73
2021/03/09 05:31:58;;;;;;;42.10;23.80;;;0.90;2201.60;;;;;;4979677;28;20034;-74
2021/03/09 05:34:24;;;;;;;35.42;17.52;;;25.60;2176.00;;;;;;4985064;28;20546;-73
2021/03/09 05:36:50;;;;;;;36.88;20.27;;;25.80;2201.60;;;;;;4978867;28;20053;-75
2021/03/09 05:39:15;;;;;;;32.65;18.73;;;25.80;2201.60;;;;;;4980993;28;20066;-75
2021/03/09 05:41:41;;;;;;;30.05;17.90;;;25.90;2201.60;;;;;;4980719;28;20519;-73
2021/03/09 05:44:07;;;;;;;31.58;17.08;;;25.90;2201.60;;;;;;4971785;28;20031;-73
2021/03/09 05:46:33;;;;;;;31.35;17.85;;;25.90;2201.60;;;;;;4974327;28;20027;-74
2021/03/09 05:48:59;;;;;;;35.80;18.50;;;26.00;2201.60;;;;;;4960287;28;20038;-72
2021/03/09 05:51:25;;;;;;;47.60;28.13;;;25.90;2201.60;;;;;;4982611;28;20045;-73
2021/03/09 05:53:51;;;;;;;28.75;19.08;;;25.80;2201.60;;;;;;4978038;28;20035;-73
2021/03/09 05:56:17;;;;;;;28.75;17.35;;;25.90;2176.00;;;;;;4962640;28;20086;-73
2021/03/09 05:58:43;;;;;;;23.23;15.32;;;26.10;2150.40;;;;;;4974236;28;20030;-72
2021/03/09 06:01:10;;;;;;;22.15;13.70;;;26.10;2150.40;;;;;;4974412;28;20050;-72
2021/03/09 06:03:36;;;;;;;19.13;12.70;;;26.30;2124.80;;;;;;4977664;28;20030;-70
2021/03/09 06:06:02;;;;;;;20.63;11.63;;;26.30;2048.00;;;;;;4976421;28;20504;-72
2021/03/09 06:08:30;;;;;;;21.77;12.88;;;26.40;2022.40;;;;;;4977318;28;20027;-72
2021/03/09 06:11:15;;;;;;;18.27;12.00;;;51.30;2048.00;;;;;;4973993;28;20026;-70
2021/03/09 06:13:42;;;;;;;19.85;11.90;;;51.60;2022.40;;;;;;4965998;28;20380;-73
2021/03/09 06:16:08;;;;;;;19.33;11.30;;;51.90;1971.20;;;;;;4973706;28;20039;-71
2021/03/09 06:18:34;;;;;;;17.30;10.27;;;77.00;1945.60;;;;;;4980155;28;20044;-71
2021/03/09 06:21:14;;;;;;;19.02;11.77;;;77.50;1868.80;;;;;;4980166;28;20064;-71
2021/03/09 06:23:42;;;;;;;14.38;9.68;;;102.70;1715.20;;;;;;4975260;28;20484;-71
2021/03/09 06:26:26;;;;;;;17.02;9.40;;;;;;;;;;4976981;28;20050;-75
2021/03/09 06:29:10;;;;;;;14.20;9.50;;;128.30;1587.20;;;;;;4985765;28;20023;-70
2021/03/09 06:31:37;;;;;;;10.90;8.35;;;128.60;1536.00;;;;;;4975660;28;20023;-72
2021/03/09 06:34:22;;;;;;;14.50;8.23;;;128.80;1459.20;;;;;;4975120;28;20023;-75
2021/03/09 06:37:24;;;;;;;14.05;9.05;;;128.70;1433.60;;;;;;4973937;28;20380;-72
2021/03/09 06:40:06;;;;;;;13.98;9.25;;;128.80;1459.20;;;;;;4948335;29;20047;-73
2021/03/09 06:42:33;;;;;;;15.95;10.63;;;154.10;1408.00;;;;;;4941621;28;20047;-71
2021/03/09 06:45:15;;;;;;;15.43;9.10;;;154.40;1356.80;;;;;;4934805;29;20481;-70
2021/03/09 06:47:50;;;;;;;14.27;9.02;;;154.30;1356.80;;;;;;4931000;29;20122;-71
2021/03/09 06:50:20;;;;;;;14.25;9.93;;;179.20;1331.20;;;;;;4934832;29;20464;-71
2021/03/09 06:53:02;;;;;;;14.50;8.30;;;179.40;1331.20;;;;;;4943237;28;20063;-73
2021/03/09 06:55:30;;;;;;;15.20;8.02;;;154.20;1331.20;;;;;;4940992;29;20105;-73
2021/03/09 06:58:13;;;;;;;18.02;9.18;;;154.50;1305.60;;;;;;4929367;29;20062;-73
2021/03/09 07:00:43;;;;;;;13.35;8.63;;;128.80;1382.40;;;;;;4939388;29;20118;-72
2021/03/09 07:03:34;;;;;;;14.35;9.82;;;128.70;1408.00;;;;;;4941712;29;20075;-68
2021/03/09 07:06:00;;;;;;;15.05;9.50;;;128.80;1408.00;;;;;;4933196;29;20442;-68
2021/03/09 07:08:26;;;;;;;14.50;9.35;;;128.60;1433.60;;;;;;4928105;29;20139;-68
2021/03/09 07:10:55;;;;;;;14.50;9.57;;;153.70;1433.60;;;;;;4945255;29;20027;-69
2021/03/09 07:13:26;;;;;;;14.45;10.27;;;128.90;1356.80;;;;;;4945622;29;20040;-68
2021/03/09 07:15:53;;;;;;;19.17;10.55;;;128.00;1433.60;;;;;;4958318;28;20057;-70
2021/03/09 07:18:27;;;;;;;13.52;9.80;;;103.10;1459.20;;;;;;4972272;28;20037;-69
2021/03/09 07:20:54;;;;;;;14.32;8.35;;;103.20;1459.20;;;;;;4974901;28;20034;-72
2021/03/09 07:23:22;;;;;;;13.65;8.52;;;103.00;1459.20;;;;;;4974451;28;20515;-70
2021/03/09 07:25:57;;;;;;;11.48;8.32;;;102.80;1459.20;;;;;;4960877;28;20031;-70
2021/03/09 07:28:27;;;;;;;16.30;8.77;;;102.80;1510.40;;;;;;4972862;28;20105;-70
2021/03/09 07:30:54;;;;;;;12.35;7.53;;;77.70;1510.40;;;;;;4972845;28;20038;-69
2021/03/09 07:33:24;;;;;;;13.48;9.32;;;77.40;1536.00;;;;;;4967442;28;20046;-70
2021/03/09 07:35:50;;;;;;;19.60;9.10;;;77.30;1587.20;;;;;;4972584;28;20031;-70
2021/03/09 07:38:21;;;;;;;17.80;9.80;;;77.60;1561.60;;;;;;4966914;28;20050;-70
2021/03/09 07:40:47;;;;;;;14.85;9.43;;;102.40;1561.60;;;;;;4963778;28;20039;-71
2021/03/09 07:43:13;;;;;;;18.42;9.85;;;102.90;1561.60;;;;;;4969236;28;20090;-69
2021/03/09 07:45:40;;;;;;;18.48;9.95;;;103.30;1510.40;;;;;;4972334;28;20027;-67
2021/03/09 07:48:07;;;;;;;16.38;9.43;;;128.90;1459.20;;;;;;4981023;28;20513;-68
2021/03/09 07:50:43;;;;;;;14.68;9.38;;;154.10;1382.40;;;;;;4971733;28;20031;-67
2021/03/09 07:53:17;;;;;;;13.73;9.48;;;154.30;1536.00;;;;;;4971667;28;20035;-67
2021/03/09 07:56:09;;;;;;;14.05;9.55;;;179.30;1331.20;;;;;;4963739;28;20512;-70
2021/03/09 07:58:35;;;;;;;14.40;9.15;;;179.70;1254.40;;;;;;4971602;28;20050;-71
2021/03/09 08:01:01;;;;;;;14.05;8.73;;;179.50;1280.00;;;;;;4969901;28;20037;-71
2021/03/09 08:03:35;;;;;;;16.00;10.20;;;179.60;1280.00;;;;;;4970642;28;20105;-69
2021/03/09 08:06:02;;;;;;;17.10;10.10;;;180.10;1254.40;;;;;;4970362;28;20030;-69
2021/03/09 08:08:46;;;;;;;21.50;10.43;;;180.10;1280.00;;;;;;4974090;28;20030;-68
2021/03/09 08:11:27;;;;;;;17.52;9.93;;;180.10;1228.80;;;;;;4977228;28;20049;-72
2021/03/09 08:14:04;;;;;;;16.15;10.52;;;180.10;1254.40;;;;;;4976568;28;20022;-69
2021/03/09 08:16:34;;;;;;;20.42;12.75;;;179.70;1280.00;;;;;;4956258;28;20031;-69
2021/03/09 08:19:01;;;;;;;14.27;8.68;;;179.80;1254.40;;;;;;4964958;28;20027;-73
2021/03/09 08:21:39;;;;;;;13.82;8.75;;;179.60;1254.40;;;;;;4972301;28;20031;-69
2021/03/09 08:24:05;;;;;;;14.23;8.88;;;179.40;1305.60;;;;;;4973750;28;20388;-69
2021/03/09 08:26:31;;;;;;;16.33;9.80;;;154.50;1305.60;;;;;;4961481;28;20031;-70
2021/03/09 08:28:58;;;;;;;15.57;9.20;;;153.80;1356.80;;;;;;4973789;28;20551;-71
2021/03/09 08:31:26;;;;;;;15.63;9.65;;;154.10;1356.80;;;;;;4972086;28;20027;-74
2021/03/09 08:34:08;;;;;;;16.92;9.25;;;154.20;1356.80;;;;;;4972959;28;20019;-69
2021/03/09 08:36:36;;;;;;;14.95;8.95;;;179.20;1305.60;;;;;;4970238;28;20491;-68
2021/03/09 08:39:07;;;;;;;18.02;11.55;;;128.80;1382.40;;;;;;4969809;28;20042;-69
2021/03/09 08:41:42;;;;;;;15.45;10.50;;;128.60;1433.60;;;;;;4971443;28;20476;-68
2021/03/09 08:44:28;;;;;;;14.18;9.57;;;128.80;1408.00;;;;;;4973158;28;20133;-66
2021/03/09 08:47:00;;;;;;;15.02;9.35;;;128.40;1433.60;;;;;;4965715;28;20145;-67
2021/03/09 08:49:35;;;;;;;18.45;10.00;;;153.60;1408.00;;;;;;4972179;28;20487;-65
2021/03/09 08:52:31;;;;;;;15.35;9.98;;;154.10;1408.00;;;;;;4970572;28;20027;-68
2021/03/09 08:54:57;;;;;;;17.52;10.55;;;154.20;1382.40;;;;;;4971435;28;20042;-69
2021/03/09 08:57:26;;;;;;;16.50;10.90;;;179.40;1356.80;;;;;;4983278;28;20039;-69
2021/03/09 09:00:11;;;;;;;14.50;10.20;;;179.80;1305.60;;;;;;4971775;28;20065;-70
2021/03/09 09:02:41;;;;;;;17.45;10.98;;;154.30;1331.20;;;;;;4973832;28;20465;-70
2021/03/09 09:05:08;;;;;;;18.13;10.73;;;154.00;1382.40;;;;;;4971754;28;20222;-69
2021/03/09 09:07:36;;;;;;;21.30;10.45;;;153.80;1382.40;;;;;;4975483;28;20083;-70
2021/03/09 09:10:07;;;;;;;18.40;10.45;;;153.70;1382.40;;;;;;4972377;28;20026;-71
2021/03/09 09:12:54;;;;;;;17.83;10.57;;;153.70;1408.00;;;;;;4976765;28;20027;-70
2021/03/09 09:15:32;;;;;;;17.27;10.70;;;128.70;1433.60;;;;;;4980040;28;20626;-71
2021/03/09 09:18:00;;;;;;;13.75;8.95;;;128.90;1433.60;;;;;;4953094;28;20445;-67
2021/03/09 09:20:44;;;;;;;21.63;9.85;;;128.80;1382.40;;;;;;4970584;28;20027;-71
2021/03/09 09:23:29;;;;;;;17.40;9.90;;;153.70;1408.00;;;;;;4960344;28;20051;-68
2021/03/09 09:25:57;;;;;;;16.63;9.10;;;153.80;1382.40;;;;;;4970651;28;20023;-69
2021/03/09 09:28:34;;;;;;;13.98;9.70;;;153.90;1408.00;;;;;;4969594;28;20043;-76
2021/03/09 09:31:01;;;;;;;13.15;8.90;;;154.00;1408.00;;;;;;4968281;28;20037;-72
2021/03/09 09:33:29;;;;;;;17.50;9.23;;;154.10;1408.00;;;;;;4968883;28;20067;-70
2021/03/09 09:35:56;;;;;;;15.68;9.15;;;153.90;1408.00;;;;;;4965128;28;20027;-75
2021/03/09 09:38:21;;;;;;;14.18;9.45;;;153.70;1408.00;;;;;;4970510;28;20047;-72
2021/03/09 09:40:50;;;;;;;15.65;9.10;;;153.90;1408.00;;;;;;4961650;28;20026;-73
2021/03/09 09:43:18;;;;;;;14.05;8.38;;;153.80;1433.60;;;;;;4970364;28;20034;-71
2021/03/09 09:45:49;;;;;;;12.57;8.23;;;154.20;1331.20;;;;;;4969668;28;20158;-72
2021/03/09 09:48:21;;;;;;;13.73;8.98;;;154.00;1356.80;;;;;;4969922;28;20027;-71
2021/03/09 09:50:49;;;;;;;19.15;8.25;;;154.20;1382.40;;;;;;4971531;28;20037;-68
2021/03/09 09:53:34;;;;;;;11.85;7.55;;;154.00;1356.80;;;;;;4972085;28;20028;-72
2021/03/09 09:56:20;;;;;;;11.40;7.68;;;154.30;1305.60;;;;;;4970941;28;20042;-69
2021/03/09 09:58:52;;;;;;;13.82;7.65;;;154.10;1331.20;;;;;;4981125;28;20042;-78
2021/03/09 10:01:38;;;;;;;9.65;6.93;;;154.00;1331.20;;;;;;4973901;28;20027;-71
2021/03/09 10:04:07;;;;;;;10.63;6.75;;;153.60;1331.20;;;;;;4963597;28;20700;-72
2021/03/09 10:06:47;;;;;;;14.32;7.43;;;128.70;1356.80;;;;;;4987991;28;20038;-69
2021/03/09 10:09:18;;;;;;;14.48;8.07;;;128.80;1356.80;;;;;;4973003;28;20046;-71
2021/03/09 10:11:45;;;;;;;10.30;7.10;;;153.80;1356.80;;;;;;4977474;28;20035;-71
2021/03/09 10:14:11;;;;;;;9.90;7.03;;;154.20;1280.00;;;;;;4965396;28;20493;-73
2021/03/09 10:16:42;;;;;;;9.77;7.05;;;154.40;1280.00;;;;;;4958145;28;20038;-70
2021/03/09 10:19:09;;;;;;;17.60;10.70;;;154.40;1254.40;;;;;;4974951;28;20551;-73
2021/03/09 10:21:36;;;;;;;10.68;7.53;;;154.50;1228.80;;;;;;4974912;28;20027;-71
2021/03/09 10:24:03;;;;;;;10.27;6.82;;;154.10;1254.40;;;;;;4988755;28;20030;-71
2021/03/09 10:26:31;;;;;;;12.15;7.35;;;153.70;1280.00;;;;;;4975322;28;20174;-70
2021/03/09 10:29:13;;;;;;;10.93;7.75;;;153.90;1305.60;;;;;;4969583;28;20027;-69
2021/03/09 10:31:52;;;;;;;12.55;7.57;;;153.90;1305.60;;;;;;4970568;28;20023;-69
2021/03/09 10:34:40;;;;;;;11.52;7.35;;;154.00;1305.60;;;;;;4989234;28;20034;-72
2021/03/09 10:37:12;;;;;;;21.17;7.72;;;154.40;1331.20;;;;;;4965172;28;20117;-65
2021/03/09 10:39:52;;;;;;;12.57;7.40;;;154.40;1305.60;;;;;;4980325;28;20113;-71
2021/03/09 10:42:24;;;;;;;12.63;7.68;;;154.50;1280.00;;;;;;4969539;28;20031;-69
2021/03/09 10:44:50;;;;;;;12.77;7.03;;;179.20;1254.40;;;;;;4966510;28;20049;-70
2021/03/09 10:47:16;;;;;;;11.73;7.65;;;179.50;1254.40;;;;;;4965498;28;20481;-70
2021/03/09 10:49:42;;;;;;;15.48;8.65;;;179.70;1203.20;;;;;;4975105;28;20065;-68
2021/03/09 10:52:09;;;;;;;11.82;7.70;;;179.70;1203.20;;;;;;4972724;28;20090;-73
2021/03/09 10:54:39;;;;;;;14.85;7.95;;;179.80;1203.20;;;;;;4976336;28;20042;-74
2021/03/09 10:57:06;;;;;;;16.45;8.27;;;179.90;1228.80;;;;;;4974719;28;20117;-69
2021/03/09 10:59:32;;;;;;;14.90;8.18;;;180.00;1203.20;;;;;;4974193;28;20069;-67
2021/03/09 11:01:58;;;;;;;11.10;7.55;;;180.00;1203.20;;;;;;4974154;28;20377;-67
2021/03/09 11:04:24;;;;;;;12.90;7.88;;;204.80;1177.60;;;;;;4980937;28;20077;-69
2021/03/09 11:06:49;;;;;;;27.15;8.57;;;180.10;1152.00;;;;;;4973895;28;20031;-69
2021/03/09 11:09:15;;;;;;;11.98;7.85;;;204.80;1177.60;;;;;;4969281;28;20039;-70
2021/03/09 11:11:41;;;;;;;13.63;8.70;;;205.10;1152.00;;;;;;4974857;28;20019;-72
2021/03/09 11:14:07;;;;;;;12.20;8.35;;;205.20;1152.00;;;;;;4981236;28;20508;-67
2021/03/09 11:16:33;;;;;;;15.88;8.65;;;205.20;1177.60;;;;;;4975976;28;20089;-70
2021/03/09 11:19:00;;;;;;;12.60;8.93;;;205.20;1126.40;;;;;;4973742;28;20034;-68
2021/03/09 11:21:26;;;;;;;12.23;8.70;;;180.10;1126.40;;;;;;4984445;28;20057;-69
2021/03/09 11:23:52;;;;;;;12.13;8.43;;;180.00;1177.60;;;;;;4978063;28;20089;-68
2021/03/09 11:26:20;;;;;;;11.98;9.00;;;180.00;1203.20;;;;;;4969979;28;20023;-67
2021/03/09 11:28:46;;;;;;;12.05;9.02;;;179.90;1177.60;;;;;;4974287;28;20031;-69
2021/03/09 11:31:13;;;;;;;12.75;9.13;;;180.00;1152.00;;;;;;4972133;28;20027;-66
2021/03/09 11:33:39;;;;;;;14.18;9.07;;;179.80;1152.00;;;;;;4960791;28;20122;-70
2021/03/09 11:36:06;;;;;;;11.65;8.90;;;179.70;1177.60;;;;;;4971538;28;20114;-70
2021/03/09 11:38:31;;;;;;;13.48;8.85;;;179.60;1177.60;;;;;;4973692;28;20039;-72
2021/03/09 11:40:58;;;;;;;12.18;8.50;;;179.70;1177.60;;;;;;4969007;28;20089;-70
2021/03/09 11:43:24;;;;;;;15.63;9.43;;;179.90;1152.00;;;;;;4973761;28;20035;-65
2021/03/09 11:45:49;;;;;;;12.25;8.73;;;180.00;1126.40;;;;;;4971593;28;20529;-71
2021/03/09 11:48:16;;;;;;;14.15;9.30;;;180.00;1126.40;;;;;;4968689;28;20061;-70
2021/03/09 11:50:41;;;;;;;12.30;8.68;;;204.80;1152.00;;;;;;4973988;28;20023;-68
2021/03/09 11:53:07;;;;;;;12.88;9.32;;;204.90;1126.40;;;;;;4973786;28;20480;-66
2021/03/09 11:55:33;;;;;;;10.98;8.48;;;205.00;1100.80;;;;;;4961626;28;20042;-67
2021/03/09 11:57:59;;;;;;;12.88;8.73;;;204.80;1100.80;;;;;;4961630;28;20444;-67
2021/03/09 12:00:25;;;;;;;13.25;9.13;;;205.20;1075.20;;;;;;4973777;28;20059;-67
2021/03/09 12:02:50;;;;;;;14.52;10.13;;;205.00;1075.20;;;;;;4974304;28;20022;-70
2021/03/09 12:05:16;;;;;;;14.38;9.38;;;205.20;1075.20;;;;;;4973679;28;20090;-71
2021/03/09 12:07:42;;;;;;;11.45;8.65;;;205.10;1100.80;;;;;;4978531;28;20106;-71
2021/03/09 12:10:09;;;;;;;13.32;8.80;;;205.00;1075.20;;;;;;4967312;28;20381;-71
2021/03/09 12:12:34;;;;;;;12.02;8.77;;;205.30;1100.80;;;;;;4971032;28;20015;-68
2021/03/09 12:15:01;;;;;;;17.42;9.23;;;205.30;1075.20;;;;;;4981809;28;20084;-68
2021/03/09 12:17:26;;;;;;;15.20;9.55;;;205.30;1049.60;;;;;;4974733;28;20468;-69
2021/03/09 12:19:52;;;;;;;13.45;8.65;;;205.20;1075.20;;;;;;4972324;28;20038;-70
2021/03/09 12:22:18;;;;;;;20.38;10.52;;;205.10;1075.20;;;;;;4973019;28;20114;-68